createdAt,value
2022-10-19T00:01:18.401Z,23.18
2022-10-19T00:06:26.397Z,23.98
2022-10-19T00:08:55.876Z,23.29
2022-10-19T00:11:23.955Z,23.11
2022-10-19T00:13:51.666Z,23.58
2022-10-19T00:16:18.918Z,23.72
2022-10-19T00:18:46.673Z,22.49
2022-10-19T00:21:16.182Z,24.06
2022-10-19T00:23:44.034Z,22.92
2022-10-19T00:26:13.088Z,23.57
2022-10-19T00:28:39.934Z,23.58
2022-10-19T00:31:10.393Z,24.65
2022-10-19T00:33:37.237Z,23.73
2022-10-19T00:36:05.239Z,24.99
2022-10-19T00:38:32.736Z,23.73
2022-10-19T00:41:00.011Z,24.89
2022-10-19T00:43:31.290Z,23.66
2022-10-19T00:45:57.977Z,23.95
2022-10-19T00:48:28.107Z,23.55
2022-10-19T00:50:57.300Z,23.21
2022-10-19T00:53:27.235Z,25.40
2022-10-19T00:55:54.415Z,25.41
2022-10-19T00:58:21.426Z,23.73
2022-10-19T01:00:48.257Z,23.91
2022-10-19T01:03:16.396Z,23.86
2022-10-19T01:05:43.549Z,24.38
2022-10-19T01:08:12.089Z,24.32
2022-10-19T01:10:50.023Z,25.91
2022-10-19T01:13:19.912Z,24.37
2022-10-19T01:16:15.816Z,25.48
2022-10-19T01:19:27.385Z,24.01
2022-10-19T01:22:19.897Z,25.97
2022-10-19T01:25:17.727Z,26.04
2022-10-19T01:27:53.266Z,24.96
2022-10-19T01:30:47.037Z,24.24
2022-10-19T01:33:31.617Z,24.25
2022-10-19T01:36:09.289Z,24.44
2022-10-19T01:39:10.660Z,25.75
2022-10-19T01:41:55.402Z,25.27
2022-10-19T01:44:29.742Z,23.37
2022-10-19T01:47:06.975Z,23.42
2022-10-19T01:49:43.679Z,24.09
2022-10-19T01:52:15.377Z,24.04
2022-10-19T01:54:47.718Z,23.77
2022-10-19T01:57:20.082Z,23.71
2022-10-19T01:59:49.270Z,23.82
2022-10-19T02:02:18.365Z,23.52
2022-10-19T02:04:47.141Z,23.81
2022-10-19T02:07:14.208Z,24.88
2022-10-19T02:09:41.387Z,23.64
2022-10-19T02:12:11.068Z,23.74
2022-10-19T02:14:46.865Z,23.42
2022-10-19T02:17:17.523Z,23.80
2022-10-19T02:19:44.381Z,23.53
2022-10-19T02:22:13.184Z,24.19
2022-10-19T02:24:40.149Z,25.13
2022-10-19T02:27:08.522Z,24.27
2022-10-19T02:29:37.338Z,25.58
2022-10-19T02:32:04.901Z,24.08
2022-10-19T02:34:32.670Z,23.30
2022-10-19T02:36:59.472Z,24.13
2022-10-19T02:39:26.425Z,25.93
2022-10-19T02:41:53.110Z,25.15
2022-10-19T02:44:24.661Z,24.11
2022-10-19T02:46:57.379Z,24.35
2022-10-19T02:49:25.131Z,24.66
2022-10-19T02:52:01.256Z,24.08
2022-10-19T02:54:28.566Z,23.59
2022-10-19T02:56:56.218Z,23.98
2022-10-19T02:59:23.461Z,24.78
2022-10-19T03:01:50.434Z,23.61
2022-10-19T03:04:18.193Z,24.24
2022-10-19T03:06:44.932Z,23.99
2022-10-19T03:09:12.058Z,23.19
2022-10-19T03:11:38.919Z,25.30
2022-10-19T03:14:05.705Z,24.63
2022-10-19T03:16:33.053Z,25.13
2022-10-19T03:19:00.046Z,25.34
2022-10-19T03:21:27.105Z,27.17
2022-10-19T03:23:54.519Z,24.91
2022-10-19T03:26:21.564Z,24.46
2022-10-19T03:28:48.255Z,24.07
2022-10-19T03:31:15.558Z,24.53
2022-10-19T03:33:42.401Z,25.19
2022-10-19T03:36:23.997Z,25.11
2022-10-19T03:38:52.665Z,24.63
2022-10-19T03:41:20.663Z,25.24
2022-10-19T03:43:48.212Z,24.89
2022-10-19T03:46:15.844Z,26.25
2022-10-19T03:48:43.245Z,24.13
2022-10-19T03:51:13.342Z,24.15
2022-10-19T03:53:40.858Z,24.34
2022-10-19T03:56:13.225Z,24.34
2022-10-19T03:58:41.050Z,24.39
2022-10-19T04:01:15.558Z,23.04
2022-10-19T04:03:42.771Z,24.26
2022-10-19T04:06:15.787Z,23.96
2022-10-19T04:08:48.225Z,26.98
2022-10-19T04:11:17.144Z,26.64
2022-10-19T04:13:43.854Z,24.95
2022-10-19T04:16:13.820Z,22.68
2022-10-19T04:18:40.553Z,25.15
2022-10-19T04:21:07.302Z,25.29
2022-10-19T04:23:35.949Z,23.93
2022-10-19T04:26:05.968Z,23.31
2022-10-19T04:28:34.590Z,23.81
2022-10-19T04:31:05.635Z,24.11
2022-10-19T04:33:34.312Z,24.11
2022-10-19T04:36:03.403Z,26.39
2022-10-19T04:38:30.255Z,23.96
2022-10-19T04:41:03.294Z,24.81
2022-10-19T04:43:30.050Z,24.04
2022-10-19T04:45:56.736Z,24.11
2022-10-19T04:48:23.556Z,25.91
2022-10-19T04:50:54.000Z,24.51
2022-10-19T04:53:20.884Z,23.87
2022-10-19T04:55:48.466Z,25.06
2022-10-19T04:58:15.283Z,24.96
2022-10-19T05:00:42.036Z,24.02
2022-10-19T05:03:08.773Z,24.02
2022-10-19T05:05:35.795Z,24.04
2022-10-19T05:08:03.446Z,25.94
2022-10-19T05:10:30.332Z,25.35
2022-10-19T05:12:57.115Z,24.87
2022-10-19T05:15:23.817Z,25.79
2022-10-19T05:17:50.529Z,25.69
2022-10-19T05:20:17.854Z,24.58
2022-10-19T05:22:44.551Z,24.31
2022-10-19T05:25:11.237Z,24.89
2022-10-19T05:27:37.991Z,25.13
2022-10-19T05:30:06.508Z,24.67
2022-10-19T05:32:34.010Z,23.91
2022-10-19T05:35:00.762Z,26.88
2022-10-19T05:37:27.882Z,25.26
2022-10-19T05:39:55.014Z,25.44
2022-10-19T05:42:21.720Z,24.42
2022-10-19T05:44:49.214Z,24.11
2022-10-19T05:47:15.936Z,23.33
2022-10-19T05:49:42.682Z,24.33
2022-10-19T05:52:09.419Z,24.23
2022-10-19T05:54:37.137Z,24.55
2022-10-19T05:57:04.525Z,26.07
2022-10-19T05:59:31.301Z,26.00
2022-10-19T06:01:58.618Z,25.12
2022-10-19T06:04:25.562Z,24.29
2022-10-19T06:06:52.261Z,24.35
2022-10-19T06:09:20.227Z,23.79
2022-10-19T06:11:48.443Z,24.07
2022-10-19T06:14:17.075Z,24.18
2022-10-19T06:16:46.064Z,24.49
2022-10-19T06:19:13.416Z,25.57
2022-10-19T06:21:43.278Z,23.84
2022-10-19T06:24:13.078Z,25.12
2022-10-19T06:26:40.031Z,23.83
2022-10-19T06:29:06.738Z,25.25
2022-10-19T06:31:36.452Z,25.52
2022-10-19T06:34:04.066Z,25.25
2022-10-19T06:36:31.815Z,23.21
2022-10-19T06:39:00.039Z,25.85
2022-10-19T06:41:26.846Z,24.00
2022-10-19T06:43:55.003Z,24.48
2022-10-19T06:46:24.114Z,24.21
2022-10-19T06:48:56.391Z,25.10
2022-10-19T06:51:25.494Z,24.70
2022-10-19T06:53:56.546Z,25.72
2022-10-19T06:56:24.763Z,24.17
2022-10-19T06:58:51.858Z,24.34
2022-10-19T07:01:19.839Z,23.68
2022-10-19T07:03:46.602Z,24.89
2022-10-19T07:06:14.415Z,24.88
2022-10-19T07:08:42.547Z,25.62
2022-10-19T07:11:11.982Z,24.00
2022-10-19T07:13:39.518Z,25.58
2022-10-19T07:16:15.951Z,27.21
2022-10-19T07:18:47.055Z,25.89
2022-10-19T07:21:15.766Z,23.59
2022-10-19T07:23:47.161Z,26.06
2022-10-19T07:26:17.301Z,26.60
2022-10-19T07:28:46.618Z,25.40
2022-10-19T07:31:18.302Z,25.92
2022-10-19T07:33:46.960Z,25.14
2022-10-19T07:36:14.241Z,25.36
2022-10-19T07:38:41.218Z,24.78
2022-10-19T07:41:13.768Z,25.05
2022-10-19T07:43:42.363Z,25.40
2022-10-19T07:46:12.962Z,27.30
2022-10-19T07:48:40.253Z,26.47
2022-10-19T07:51:09.613Z,27.48
2022-10-19T07:53:37.269Z,25.88
2022-10-19T07:56:12.739Z,24.76
2022-10-19T07:58:40.159Z,25.38
2022-10-19T08:01:09.871Z,24.67
2022-10-19T08:06:24.956Z,25.17
2022-10-19T08:08:53.069Z,24.75
2022-10-19T08:11:25.072Z,24.63
2022-10-19T08:13:52.590Z,25.74
2022-10-19T08:16:27.637Z,25.17
2022-10-19T08:18:58.328Z,25.63
2022-10-19T08:21:26.996Z,25.06
2022-10-19T08:23:53.996Z,25.35
2022-10-19T08:26:21.401Z,25.39
2022-10-19T08:28:48.910Z,24.12
2022-10-19T08:31:21.307Z,24.54
2022-10-19T08:33:50.733Z,26.31
2022-10-19T08:36:20.102Z,26.77
2022-10-19T08:38:49.241Z,27.89
2022-10-19T08:41:28.643Z,25.96
2022-10-19T08:44:21.196Z,26.72
2022-10-19T08:46:54.140Z,25.47
2022-10-19T08:49:25.589Z,25.61
2022-10-19T08:51:59.638Z,25.85
2022-10-19T08:54:37.911Z,24.05
2022-10-19T08:57:26.162Z,26.12
2022-10-19T09:00:18.251Z,26.37
2022-10-19T09:02:51.245Z,24.90
2022-10-19T09:05:30.306Z,27.63
2022-10-19T09:07:57.267Z,27.84
2022-10-19T09:10:29.290Z,26.95
2022-10-19T09:13:41.508Z,26.22
2022-10-19T09:16:15.839Z,25.16
2022-10-19T09:18:43.895Z,25.10
2022-10-19T09:21:50.307Z,28.67
2022-10-19T09:24:31.936Z,26.21
2022-10-19T09:27:02.707Z,26.81
2022-10-19T09:29:32.322Z,27.03
2022-10-19T09:32:03.734Z,28.27
2022-10-19T09:34:34.586Z,27.94
2022-10-19T09:37:02.497Z,25.96
2022-10-19T09:39:31.114Z,25.34
2022-10-19T09:41:59.553Z,26.11
2022-10-19T09:44:27.570Z,26.48
2022-10-19T09:47:23.690Z,24.31
2022-10-19T09:49:51.734Z,24.20
2022-10-19T09:52:43.530Z,25.45
2022-10-19T09:55:13.314Z,25.80
2022-10-19T09:57:50.808Z,25.25
2022-10-19T10:00:23.426Z,25.88
2022-10-19T10:02:53.110Z,24.24
2022-10-19T10:05:29.763Z,25.77
2022-10-19T10:07:56.599Z,25.36
2022-10-19T10:10:30.499Z,26.13
2022-10-19T10:13:00.952Z,25.37
2022-10-19T10:15:35.866Z,25.72
2022-10-19T10:18:03.619Z,26.34
2022-10-19T10:20:35.971Z,25.96
2022-10-19T10:23:06.133Z,24.95
2022-10-19T10:25:36.514Z,25.86
2022-10-19T10:28:22.051Z,25.25
2022-10-19T10:30:53.467Z,26.14
2022-10-19T10:33:40.658Z,24.83
2022-10-19T10:36:12.382Z,28.03
2022-10-19T10:38:50.302Z,25.50
2022-10-19T10:41:24.060Z,23.79
2022-10-19T10:44:04.957Z,26.36
2022-10-19T10:46:55.647Z,24.26
2022-10-19T10:49:44.167Z,26.78
2022-10-19T10:52:14.310Z,25.72
2022-10-19T10:54:41.396Z,26.47
2022-10-19T10:57:16.727Z,26.32
2022-10-19T11:00:07.919Z,24.91
2022-10-19T11:02:46.765Z,25.79
2022-10-19T11:05:30.609Z,27.26
2022-10-19T11:08:26.700Z,27.42
2022-10-19T11:11:07.526Z,26.70
2022-10-19T11:13:43.482Z,27.20
2022-10-19T11:16:16.689Z,27.30
2022-10-19T11:18:52.545Z,26.62
2022-10-19T11:21:42.217Z,25.88
2022-10-19T11:24:22.051Z,24.80
2022-10-19T11:27:15.835Z,29.51
2022-10-19T11:29:45.689Z,28.92
2022-10-19T11:32:35.443Z,28.41
2022-10-19T11:35:17.651Z,28.01
2022-10-19T11:38:20.051Z,26.06
2022-10-19T11:41:32.162Z,26.66
2022-10-19T11:44:28.061Z,25.42
2022-10-19T11:47:19.309Z,26.80
2022-10-19T11:50:31.056Z,26.04
2022-10-19T11:53:08.661Z,27.15
2022-10-19T11:56:10.741Z,25.32
2022-10-19T11:58:59.365Z,26.93
2022-10-19T12:01:38.294Z,28.62
2022-10-19T12:04:17.106Z,24.81
2022-10-19T12:07:13.515Z,26.43
2022-10-19T12:09:49.387Z,25.90
2022-10-19T12:12:16.060Z,28.09
2022-10-19T12:14:47.944Z,24.90
2022-10-19T12:17:23.807Z,25.32
2022-10-19T12:19:56.411Z,25.08
2022-10-19T12:22:27.832Z,26.08
2022-10-19T12:24:57.830Z,28.53
2022-10-19T12:27:35.419Z,25.92
2022-10-19T12:30:09.390Z,25.34
2022-10-19T12:32:44.062Z,25.41
2022-10-19T12:35:37.607Z,23.88
2022-10-19T12:38:18.992Z,23.50
2022-10-19T12:40:56.433Z,26.86
2022-10-19T12:43:42.669Z,24.73
2022-10-19T12:46:42.330Z,25.60
2022-10-19T12:49:30.712Z,24.65
2022-10-19T12:51:59.806Z,26.18
2022-10-19T12:54:32.681Z,26.27
2022-10-19T12:57:01.915Z,25.48
2022-10-19T12:59:37.667Z,24.36
2022-10-19T13:02:29.844Z,27.40
2022-10-19T13:04:56.771Z,24.47
2022-10-19T13:07:26.521Z,26.68
2022-10-19T13:10:02.071Z,25.96
2022-10-19T13:12:41.529Z,23.22
2022-10-19T13:15:33.930Z,23.64
2022-10-19T13:18:41.918Z,23.78
2022-10-19T13:21:09.072Z,24.13
2022-10-19T13:23:42.039Z,24.24
2022-10-19T13:26:32.312Z,23.02
2022-10-19T13:28:59.117Z,23.75
2022-10-19T13:31:29.612Z,24.67
2022-10-19T13:33:57.812Z,22.64
2022-10-19T13:36:25.506Z,23.95
2022-10-19T13:39:02.710Z,24.89
2022-10-19T13:41:39.318Z,23.39
2022-10-19T13:44:09.294Z,24.57
2022-10-19T13:46:44.445Z,23.64
2022-10-19T13:49:18.124Z,22.88
2022-10-19T13:52:25.904Z,24.18
2022-10-19T13:54:53.243Z,25.72
2022-10-19T13:57:41.800Z,28.25
2022-10-19T14:00:16.607Z,24.39
2022-10-19T14:03:11.631Z,27.25
2022-10-19T14:05:42.007Z,27.42
2022-10-19T14:08:35.031Z,25.33
2022-10-19T14:11:46.872Z,25.45
2022-10-19T14:14:15.946Z,27.68
2022-10-19T14:16:59.821Z,27.15
2022-10-19T14:19:52.636Z,25.90
2022-10-19T14:22:26.137Z,27.87
2022-10-19T14:25:01.308Z,27.97
2022-10-19T14:27:28.358Z,24.28
2022-10-19T14:29:55.413Z,25.65
2022-10-19T14:32:28.277Z,25.50
2022-10-19T14:35:05.980Z,26.35
2022-10-19T14:37:33.282Z,25.73
2022-10-19T14:40:26.415Z,26.13
2022-10-19T14:42:57.238Z,27.07
2022-10-19T14:45:32.631Z,24.43
2022-10-19T14:48:01.262Z,25.11
2022-10-19T14:50:30.502Z,26.72
2022-10-19T14:53:22.542Z,28.39
2022-10-19T14:55:54.880Z,28.58
2022-10-19T14:58:25.026Z,28.49
2022-10-19T15:00:54.019Z,25.47
2022-10-19T15:03:27.206Z,25.16
2022-10-19T15:06:03.174Z,26.70
2022-10-19T15:08:37.416Z,26.42
2022-10-19T15:11:06.856Z,25.06
2022-10-19T15:13:40.875Z,29.38
2022-10-19T15:16:29.461Z,29.15
2022-10-19T15:18:56.252Z,26.36
2022-10-19T15:21:23.354Z,25.31
2022-10-19T15:23:52.459Z,26.08
2022-10-19T15:26:29.846Z,24.09
2022-10-19T15:29:10.210Z,24.49
2022-10-19T15:31:36.938Z,26.74
2022-10-19T15:34:05.419Z,25.98
2022-10-19T15:36:33.097Z,23.07
2022-10-19T15:39:18.175Z,23.80
2022-10-19T15:41:52.058Z,24.08
2022-10-19T15:44:42.181Z,26.38
2022-10-19T15:47:15.426Z,23.26
2022-10-19T15:49:42.052Z,22.68
2022-10-19T15:52:29.969Z,25.78
2022-10-19T15:54:58.853Z,24.18
2022-10-19T15:57:30.777Z,24.08
2022-10-19T15:59:59.902Z,23.52
2022-10-19T16:02:27.123Z,23.91
2022-10-19T16:04:55.717Z,23.18
2022-10-19T16:07:29.306Z,23.88
2022-10-19T16:09:57.385Z,24.64
2022-10-19T16:12:29.143Z,24.27
2022-10-19T16:14:59.370Z,22.16
2022-10-19T16:17:28.075Z,23.26
2022-10-19T16:19:57.018Z,23.31
2022-10-19T16:22:26.300Z,24.87
2022-10-19T16:24:54.927Z,24.07
2022-10-19T16:27:21.789Z,23.64
2022-10-19T16:29:48.522Z,24.81
2022-10-19T16:32:15.501Z,22.75
2022-10-19T16:34:42.277Z,23.31
2022-10-19T16:37:09.128Z,23.41
2022-10-19T16:39:36.410Z,23.02
2022-10-19T16:42:03.332Z,22.97
2022-10-19T16:44:30.222Z,23.97
2022-10-19T16:46:58.230Z,25.48
2022-10-19T16:49:26.276Z,24.43
2022-10-19T16:51:56.337Z,23.72
2022-10-19T16:54:26.930Z,25.49
2022-10-19T16:56:56.161Z,25.43
2022-10-19T16:59:22.919Z,26.33
2022-10-19T17:01:49.902Z,25.86
2022-10-19T17:04:20.231Z,27.48
2022-10-19T17:06:47.031Z,24.27
2022-10-19T17:09:40.261Z,24.76
2022-10-19T17:12:00.846Z,26.54
2022-10-19T17:14:27.715Z,25.71
2022-10-19T17:16:55.191Z,25.89
2022-10-19T17:19:22.946Z,24.20
2022-10-19T17:21:49.930Z,25.49
2022-10-19T17:24:21.968Z,24.94
2022-10-19T17:26:51.045Z,23.91
2022-10-19T17:29:18.263Z,26.05
2022-10-19T17:31:45.375Z,29.79
2022-10-19T17:34:12.411Z,26.80
2022-10-19T17:36:44.901Z,27.68
2022-10-19T17:39:17.908Z,25.17
2022-10-19T17:41:46.284Z,24.69
2022-10-19T17:44:13.812Z,27.65
2022-10-19T17:46:41.972Z,26.76
2022-10-19T17:49:10.729Z,29.26
2022-10-19T17:51:38.869Z,26.86
2022-10-19T17:54:10.349Z,28.52
2022-10-19T17:56:38.967Z,25.73
2022-10-19T17:59:07.966Z,26.36
2022-10-19T18:01:35.163Z,25.79
2022-10-19T18:04:01.898Z,26.92
2022-10-19T18:06:34.050Z,29.10
2022-10-19T18:09:02.730Z,26.88
2022-10-19T18:11:36.032Z,27.45
2022-10-19T18:14:03.691Z,26.75
2022-10-19T18:16:38.763Z,26.23
2022-10-19T18:19:06.722Z,29.25
2022-10-19T18:21:38.638Z,27.60
2022-10-19T18:24:07.460Z,26.39
2022-10-19T18:26:35.899Z,27.51
2022-10-19T18:29:15.381Z,26.79
2022-10-19T18:31:42.655Z,26.75
2022-10-19T18:34:14.189Z,28.10
2022-10-19T18:36:42.343Z,27.30
2022-10-19T18:39:12.383Z,25.52
2022-10-19T18:41:41.330Z,24.54
2022-10-19T18:44:12.285Z,24.93
2022-10-19T18:46:39.244Z,27.85
2022-10-19T18:49:08.224Z,25.76
2022-10-19T18:51:35.628Z,26.26
2022-10-19T18:54:02.471Z,24.42
2022-10-19T18:56:29.582Z,27.08
2022-10-19T18:58:57.644Z,24.95
2022-10-19T19:01:26.905Z,28.92
2022-10-19T19:04:00.554Z,26.80
2022-10-19T19:06:29.469Z,25.28
2022-10-19T19:09:01.341Z,30.13
2022-10-19T19:11:35.954Z,25.84
2022-10-19T19:14:18.081Z,26.52
2022-10-19T19:16:45.804Z,26.07
2022-10-19T19:19:15.535Z,24.67
2022-10-19T19:21:44.659Z,25.49
2022-10-19T19:24:14.904Z,24.57
2022-10-19T19:26:45.100Z,26.61
2022-10-19T19:29:12.840Z,28.12
2022-10-19T19:31:39.711Z,28.24
2022-10-19T19:34:07.791Z,25.16
2022-10-19T19:36:34.635Z,27.72
2022-10-19T19:39:01.826Z,26.25
2022-10-19T19:41:30.777Z,26.87
2022-10-19T19:43:59.009Z,26.63
2022-10-19T19:46:27.128Z,29.69
2022-10-19T19:49:01.010Z,27.18
2022-10-19T19:51:29.213Z,26.80
2022-10-19T19:53:56.183Z,28.12
2022-10-19T19:56:23.226Z,26.57
2022-10-19T19:58:54.975Z,28.08
2022-10-19T20:01:22.301Z,26.51
2022-10-19T20:03:49.196Z,29.35
2022-10-19T20:06:20.777Z,27.96
2022-10-19T20:08:50.506Z,27.79
2022-10-19T20:11:17.675Z,27.54
2022-10-19T20:13:45.998Z,27.10
2022-10-19T20:16:18.575Z,28.56
2022-10-19T20:18:48.132Z,29.08
2022-10-19T20:21:15.930Z,26.88
2022-10-19T20:26:24.536Z,32.86
2022-10-19T20:28:51.963Z,28.83
2022-10-19T20:31:19.584Z,29.54
2022-10-19T20:33:49.730Z,29.20
2022-10-19T20:36:23.046Z,27.25
2022-10-19T20:38:55.284Z,27.42
2022-10-19T20:41:24.036Z,30.86
2022-10-19T20:43:51.720Z,30.86
2022-10-19T20:46:22.270Z,31.32
2022-10-19T20:48:50.135Z,30.43
2022-10-19T20:51:26.027Z,29.76
2022-10-19T20:53:57.657Z,28.26
2022-10-19T20:56:31.243Z,29.49
2022-10-19T20:59:00.621Z,28.26
2022-10-19T21:01:29.214Z,29.33
2022-10-19T21:03:58.953Z,30.86
2022-10-19T21:06:28.675Z,30.15
2022-10-19T21:08:56.456Z,27.45
2022-10-19T21:11:33.264Z,28.11
2022-10-19T21:14:02.417Z,28.38
2022-10-19T21:16:37.832Z,27.83
2022-10-19T21:19:08.091Z,28.09
2022-10-19T21:21:37.517Z,29.78
2022-10-19T21:24:06.388Z,28.10
2022-10-19T21:26:35.168Z,26.90
2022-10-19T21:29:03.790Z,27.18
2022-10-19T21:31:30.867Z,26.17
2022-10-19T21:33:58.619Z,26.73
2022-10-19T21:36:25.283Z,29.63
2022-10-19T21:38:52.061Z,26.33
2022-10-19T21:41:25.356Z,26.22
2022-10-19T21:43:54.766Z,26.73
2022-10-19T21:46:22.934Z,26.11
2022-10-19T21:48:50.398Z,27.33
2022-10-19T21:51:17.075Z,26.45
2022-10-19T21:53:44.590Z,25.76
2022-10-19T21:56:11.500Z,26.22
2022-10-19T21:58:38.241Z,26.89
2022-10-19T22:01:05.955Z,26.03
2022-10-19T22:03:32.855Z,25.98
2022-10-19T22:06:00.170Z,25.04
2022-10-19T22:08:28.534Z,24.66
2022-10-19T22:10:55.565Z,26.40
2022-10-19T22:13:22.336Z,26.23
2022-10-19T22:15:49.126Z,26.41
2022-10-19T22:18:15.965Z,28.61
2022-10-19T22:20:43.447Z,28.65
2022-10-19T22:23:10.143Z,29.22
2022-10-19T22:25:36.909Z,29.61
2022-10-19T22:28:03.735Z,26.17
2022-10-19T22:30:30.538Z,27.04
2022-10-19T22:32:57.744Z,26.79
2022-10-19T22:35:25.190Z,28.43
2022-10-19T22:37:51.950Z,30.10
2022-10-19T22:40:18.761Z,28.42
2022-10-19T22:42:45.451Z,29.03
2022-10-19T22:45:12.432Z,29.18
2022-10-19T22:47:39.351Z,30.88
2022-10-19T22:50:07.428Z,30.16
2022-10-19T22:52:34.337Z,32.79
2022-10-19T22:55:01.329Z,32.45
2022-10-19T22:57:28.824Z,32.41
2022-10-19T22:59:55.637Z,34.44
2022-10-19T23:02:22.342Z,30.80
2022-10-19T23:04:49.078Z,30.89
2022-10-19T23:07:15.807Z,33.07
2022-10-19T23:09:43.070Z,30.81
2022-10-19T23:12:10.482Z,31.62
2022-10-19T23:14:37.204Z,29.80
2022-10-19T23:17:03.906Z,32.53
2022-10-19T23:19:30.591Z,28.56
2022-10-19T23:21:57.247Z,30.76
2022-10-19T23:24:24.250Z,32.47
2022-10-19T23:26:51.009Z,33.14
2022-10-19T23:29:17.875Z,28.92
2022-10-19T23:31:45.505Z,31.05
2022-10-19T23:34:12.162Z,29.69
2022-10-19T23:36:38.914Z,33.63
2022-10-19T23:39:05.720Z,32.15
2022-10-19T23:41:33.051Z,28.96
2022-10-19T23:44:00.423Z,30.25
2022-10-19T23:46:27.203Z,29.41
2022-10-19T23:48:53.892Z,28.02
2022-10-19T23:51:21.955Z,30.80
2022-10-19T23:53:50.401Z,31.65
2022-10-19T23:56:23.050Z,29.79
2022-10-19T23:58:50.609Z,29.66
